Time;durP1;ratioP1;P1;durP2;ratioP2;P2;SDS_P1;SDS_P2;PMS_P1;PMS_P2;Temp;Humidity;BMP_temperature;BMP_pressure;BME280_temperature;BME280_humidity;BME280_pressure;Samples;Min_cycle;Max_cycle;Signal;HPM_P1;HPM_P2
2022/06/12 00:00:14;;;;;;;11.93;11.13;;;23.70;85.30;;;;;;5071282;28;20546;-67
2022/06/12 00:02:42;;;;;;;12.00;11.20;;;23.80;85.40;;;;;;5071446;28;20931;-68
2022/06/12 00:05:10;;;;;;;12.53;11.87;;;23.70;84.70;;;;;;5071139;28;20952;-68
2022/06/12 00:07:37;;;;;;;13.10;12.03;;;23.70;84.40;;;;;;5071218;28;20475;-68
2022/06/12 00:10:07;;;;;;;13.00;12.30;;;23.70;84.60;;;;;;5071273;28;20917;-68
2022/06/12 00:12:34;;;;;;;12.87;11.93;;;23.70;84.30;;;;;;5071424;28;20475;-68
2022/06/12 00:15:01;;;;;;;12.83;12.23;;;23.70;84.30;;;;;;5071132;28;21018;-69
2022/06/12 00:17:27;;;;;;;12.83;12.07;;;23.60;84.30;;;;;;5071381;28;20486;-68
2022/06/12 00:19:54;;;;;;;12.57;11.77;;;23.60;84.10;;;;;;5070969;28;20471;-67
2022/06/12 00:22:21;;;;;;;12.40;11.37;;;23.60;84.70;;;;;;5071261;28;20474;-68
2022/06/12 00:24:48;;;;;;;14.13;12.83;;;23.60;85.20;;;;;;5071070;28;20958;-67
2022/06/12 00:27:16;;;;;;;13.20;11.97;;;23.60;84.40;;;;;;5071209;28;20556;-68
2022/06/12 00:29:44;;;;;;;12.30;11.60;;;23.60;83.70;;;;;;5071003;28;20551;-67
2022/06/12 00:32:14;;;;;;;13.90;12.57;;;23.50;84.20;;;;;;5071038;28;20501;-68
2022/06/12 00:34:44;;;;;;;13.57;12.57;;;23.50;83.60;;;;;;5070864;28;20471;-68
2022/06/12 00:37:13;;;;;;;12.67;11.77;;;23.40;84.00;;;;;;5071298;28;20462;-68
2022/06/12 00:39:41;;;;;;;12.13;11.43;;;23.50;83.90;;;;;;5070878;28;20471;-68
2022/06/12 00:42:09;;;;;;;13.03;12.13;;;23.40;83.80;;;;;;5070799;28;20479;-68
2022/06/12 00:44:42;;;;;;;12.57;11.60;;;23.40;83.90;;;;;;5070829;28;20527;-67
2022/06/12 00:47:12;;;;;;;13.10;12.30;;;23.40;83.90;;;;;;5070957;28;20482;-67
2022/06/12 00:49:43;;;;;;;11.93;11.33;;;23.40;83.90;;;;;;5070841;28;20459;-67
2022/06/12 00:52:15;;;;;;;12.07;11.50;;;23.40;84.00;;;;;;5070962;28;20811;-67
2022/06/12 00:54:44;;;;;;;12.30;11.70;;;23.30;83.80;;;;;;5074019;28;20478;-69
2022/06/12 00:57:12;;;;;;;13.60;12.53;;;23.30;83.50;;;;;;5074807;28;20439;-68
2022/06/12 00:59:44;;;;;;;13.13;12.50;;;23.30;83.90;;;;;;5074363;28;20469;-67
2022/06/12 01:02:14;;;;;;;13.97;13.13;;;23.20;84.00;;;;;;5074565;28;20977;-68
2022/06/12 01:07:29;;;;;;;12.07;11.43;;;23.30;84.30;;;;;;5074669;28;21046;-68
2022/06/12 01:10:01;;;;;;;11.30;10.60;;;23.30;84.60;;;;;;5074250;28;20509;-68
2022/06/12 01:12:32;;;;;;;13.53;12.57;;;23.40;84.70;;;;;;5074462;28;20493;-68
2022/06/12 01:15:06;;;;;;;11.40;10.63;;;23.40;84.90;;;;;;5073912;28;20958;-68
2022/06/12 01:17:34;;;;;;;12.40;11.90;;;23.40;85.40;;;;;;5074615;28;20858;-68
2022/06/12 01:20:08;;;;;;;12.77;11.87;;;23.40;86.30;;;;;;5074044;28;20553;-67
2022/06/12 01:23:03;;;;;;;13.37;12.40;;;23.40;86.30;;;;;;5074244;28;20447;-68
2022/06/12 01:25:48;;;;;;;11.57;10.97;;;23.40;86.50;;;;;;5073882;28;21166;-68
2022/06/12 01:28:45;;;;;;;12.70;12.00;;;23.40;86.70;;;;;;5074124;28;20491;-68
2022/06/12 01:31:25;;;;;;;12.17;11.50;;;23.40;86.80;;;;;;5016800;28;20447;-68
2022/06/12 01:34:03;;;;;;;12.50;11.80;;;23.40;87.20;;;;;;5074056;28;20439;-68
2022/06/12 01:36:35;;;;;;;12.17;11.50;;;23.40;87.80;;;;;;5073795;28;20538;-68
2022/06/12 01:39:11;;;;;;;13.40;12.47;;;23.40;87.90;;;;;;5073631;28;20490;-68
2022/06/12 01:41:44;;;;;;;11.60;11.10;;;23.30;87.70;;;;;;5073916;28;20463;-68
2022/06/12 01:44:20;;;;;;;11.30;10.80;;;23.30;88.40;;;;;;5073914;28;20500;-68
2022/06/12 01:46:55;;;;;;;13.33;12.53;;;23.30;88.20;;;;;;5073537;28;20553;-68
2022/06/12 01:49:29;;;;;;;12.80;12.17;;;23.40;88.90;;;;;;5073416;28;20466;-68
2022/06/12 01:52:02;;;;;;;12.33;11.73;;;23.40;88.90;;;;;;5073749;28;20479;-68
2022/06/12 01:54:37;;;;;;;12.27;11.63;;;23.40;88.80;;;;;;5073879;28;20992;-68
2022/06/12 01:57:08;;;;;;;11.70;11.10;;;23.40;88.90;;;;;;5073468;28;20458;-69
2022/06/12 01:59:42;;;;;;;12.53;11.60;;;23.40;88.80;;;;;;5073441;28;20542;-68
2022/06/12 02:02:15;;;;;;;11.73;11.13;;;23.40;88.80;;;;;;5073524;28;20836;-67
2022/06/12 02:04:49;;;;;;;12.07;11.57;;;23.40;88.90;;;;;;5073257;28;20904;-68
2022/06/12 02:07:23;;;;;;;12.90;12.30;;;23.30;88.80;;;;;;5073021;28;20485;-68
2022/06/12 02:09:55;;;;;;;12.90;12.20;;;23.30;89.20;;;;;;5073166;28;21022;-69
2022/06/12 02:15:20;;;;;;;12.93;12.30;;;23.30;89.60;;;;;;5073224;28;20786;-68
2022/06/12 02:17:51;;;;;;;11.77;11.03;;;23.30;89.60;;;;;;5073327;28;20467;-68
2022/06/12 02:20:22;;;;;;;11.40;10.73;;;23.30;89.40;;;;;;5073017;28;20520;-70
2022/06/12 02:22:50;;;;;;;13.13;12.23;;;23.30;89.60;;;;;;5073143;28;20444;-68
2022/06/12 02:25:22;;;;;;;11.63;11.03;;;23.30;89.40;;;;;;5072737;28;20527;-68
2022/06/12 02:27:54;;;;;;;12.50;11.60;;;23.30;89.70;;;;;;5072905;28;20525;-68
2022/06/12 02:30:25;;;;;;;13.17;12.40;;;23.30;90.00;;;;;;5072881;28;20443;-69
2022/06/12 02:32:57;;;;;;;11.80;11.20;;;23.30;90.00;;;;;;5073016;28;20467;-67
2022/06/12 02:35:29;;;;;;;12.00;11.40;;;23.30;90.10;;;;;;5072703;28;20448;-68
2022/06/12 02:38:00;;;;;;;12.63;11.93;;;23.30;90.40;;;;;;5072796;28;20478;-68
2022/06/12 02:40:31;;;;;;;11.27;10.77;;;23.30;90.20;;;;;;5072344;28;20993;-69
2022/06/12 02:43:01;;;;;;;11.37;10.87;;;23.30;90.20;;;;;;5072727;28;20449;-68
2022/06/12 02:45:34;;;;;;;12.83;12.13;;;23.30;90.20;;;;;;5072720;28;20478;-68
2022/06/12 02:48:01;;;;;;;11.87;11.27;;;23.20;90.30;;;;;;5071560;28;20485;-69
2022/06/12 02:50:35;;;;;;;12.13;11.53;;;23.30;90.50;;;;;;5072390;28;20545;-68
2022/06/12 02:53:09;;;;;;;13.23;12.63;;;23.20;90.20;;;;;;5072602;28;20443;-68
2022/06/12 02:55:44;;;;;;;11.23;10.50;;;23.20;90.40;;;;;;5072288;28;20522;-68
2022/06/12 02:58:18;;;;;;;12.10;11.40;;;23.20;90.30;;;;;;5072326;28;20466;-67
2022/06/12 03:00:52;;;;;;;11.57;11.00;;;23.10;90.20;;;;;;5072188;28;20443;-67
2022/06/12 03:03:25;;;;;;;12.10;11.60;;;23.20;90.30;;;;;;5072318;28;20443;-67
2022/06/12 03:05:55;;;;;;;11.60;11.10;;;23.20;90.40;;;;;;5071934;28;20523;-67
2022/06/12 03:08:25;;;;;;;10.90;10.40;;;23.20;90.50;;;;;;5072371;28;20451;-68
2022/06/12 03:10:56;;;;;;;13.30;12.40;;;23.20;90.40;;;;;;5071954;28;20518;-68
2022/06/12 03:13:26;;;;;;;11.20;10.60;;;23.00;90.40;;;;;;5072107;28;20568;-67
2022/06/12 03:15:57;;;;;;;11.70;11.10;;;23.00;90.70;;;;;;5071029;28;20442;-67
2022/06/12 03:18:28;;;;;;;13.30;12.40;;;23.10;90.70;;;;;;5098113;22;20471;-67
2022/06/12 03:21:09;;;;;;;11.03;10.50;;;23.10;90.60;;;;;;5107730;28;20477;-67
2022/06/12 03:23:56;;;;;;;11.63;11.00;;;23.10;90.80;;;;;;5072037;28;20482;-69
2022/06/12 03:26:31;;;;;;;10.70;10.00;;;23.10;90.80;;;;;;5081402;28;21001;-67
2022/06/12 03:29:04;;;;;;;11.70;10.87;;;23.00;90.80;;;;;;5085528;28;20562;-69
2022/06/12 03:31:40;;;;;;;11.77;11.00;;;23.00;91.00;;;;;;5071731;28;20537;-67
2022/06/12 03:34:15;;;;;;;12.20;11.70;;;23.00;90.90;;;;;;5071878;28;20470;-67
2022/06/12 03:36:48;;;;;;;11.83;10.77;;;23.00;91.50;;;;;;5071610;28;20866;-67
2022/06/12 03:39:19;;;;;;;12.27;11.67;;;23.00;91.20;;;;;;5071664;28;20490;-67
2022/06/12 03:41:53;;;;;;;11.07;10.67;;;23.00;91.20;;;;;;5071551;28;20859;-67
2022/06/12 03:44:27;;;;;;;12.10;11.60;;;23.00;91.60;;;;;;5071724;28;20536;-67
2022/06/12 03:47:03;;;;;;;11.23;10.80;;;23.00;91.30;;;;;;5071388;28;20951;-67
2022/06/12 03:49:33;;;;;;;11.67;11.07;;;23.10;91.50;;;;;;5071443;28;20477;-67
2022/06/12 03:52:12;;;;;;;11.27;10.67;;;23.00;91.90;;;;;;5071712;28;20860;-66
2022/06/12 03:54:47;;;;;;;11.10;10.70;;;23.00;91.80;;;;;;5071102;28;20543;-67
2022/06/12 04:00:08;;;;;;;12.70;12.10;;;23.00;91.90;;;;;;5071427;28;20480;-67
2022/06/12 04:02:39;;;;;;;11.70;10.80;;;23.00;91.90;;;;;;5071482;28;20547;-67
2022/06/12 04:05:08;;;;;;;11.07;10.47;;;23.00;92.00;;;;;;5071302;28;20534;-67
2022/06/12 04:07:48;;;;;;;12.07;11.57;;;23.00;92.10;;;;;;5071326;28;20505;-67
2022/06/12 04:10:19;;;;;;;11.90;11.10;;;23.00;92.10;;;;;;5071231;28;20471;-67
2022/06/12 04:12:47;;;;;;;11.60;11.10;;;23.00;92.30;;;;;;5071482;28;20470;-67
2022/06/12 04:15:21;;;;;;;11.87;11.40;;;23.00;92.40;;;;;;5071149;28;20475;-67
2022/06/12 04:17:49;;;;;;;12.47;11.87;;;23.00;92.40;;;;;;5071477;28;20435;-68
2022/06/12 04:20:20;;;;;;;12.53;11.93;;;23.00;92.50;;;;;;5070939;28;20506;-68
2022/06/12 04:22:53;;;;;;;12.03;11.33;;;23.10;92.50;;;;;;5071352;28;20447;-67
2022/06/12 04:25:33;;;;;;;12.77;12.07;;;23.00;92.50;;;;;;5071052;28;20536;-69
2022/06/12 04:28:01;;;;;;;12.83;12.33;;;23.00;92.60;;;;;;5073591;28;20478;-67
2022/06/12 04:30:31;;;;;;;12.43;11.93;;;23.00;92.70;;;;;;5075112;28;20558;-67
2022/06/12 04:33:23;;;;;;;13.70;12.90;;;23.10;92.70;;;;;;5075229;28;20479;-68
2022/06/12 04:35:53;;;;;;;11.93;11.43;;;23.10;92.90;;;;;;5074893;28;20483;-67
2022/06/12 04:38:20;;;;;;;11.43;11.03;;;23.10;92.90;;;;;;5075094;28;20515;-67
2022/06/12 04:40:47;;;;;;;12.40;11.80;;;23.00;92.90;;;;;;5074871;28;20443;-67
2022/06/12 04:43:15;;;;;;;12.40;12.00;;;23.10;92.90;;;;;;5075015;28;20525;-67
2022/06/12 04:45:43;;;;;;;14.53;13.83;;;23.00;93.00;;;;;;5074780;28;20470;-67
2022/06/12 04:48:16;;;;;;;12.70;12.23;;;23.00;93.10;;;;;;5074806;28;20574;-67
2022/06/12 04:50:43;;;;;;;13.70;13.20;;;23.00;93.10;;;;;;5074737;28;20482;-68
2022/06/12 04:53:09;;;;;;;12.77;12.27;;;23.00;93.10;;;;;;5074845;28;20490;-67
2022/06/12 04:55:36;;;;;;;13.70;13.00;;;23.00;92.80;;;;;;5074675;28;20502;-69
2022/06/12 04:58:05;;;;;;;12.57;12.07;;;22.90;92.80;;;;;;5074934;28;20865;-68
2022/06/12 05:00:32;;;;;;;13.20;12.60;;;22.90;92.80;;;;;;5074065;28;20471;-67
2022/06/12 05:02:59;;;;;;;13.40;12.80;;;22.90;92.60;;;;;;5074616;28;20863;-67
2022/06/12 05:05:27;;;;;;;13.07;12.47;;;22.90;92.50;;;;;;5074573;28;20478;-67
2022/06/12 05:07:55;;;;;;;13.90;13.30;;;22.90;92.10;;;;;;5074547;28;20524;-67
2022/06/12 05:10:22;;;;;;;13.43;12.80;;;22.90;91.70;;;;;;5074155;28;20576;-67
2022/06/12 05:12:49;;;;;;;13.00;12.30;;;22.80;91.10;;;;;;5074552;28;20938;-68
2022/06/12 05:15:16;;;;;;;12.20;11.70;;;22.80;91.10;;;;;;5074381;28;20478;-67
2022/06/12 05:17:46;;;;;;;13.07;12.47;;;22.80;91.50;;;;;;5074508;28;20464;-69
2022/06/12 05:20:16;;;;;;;13.20;12.40;;;22.90;91.70;;;;;;5073600;28;20467;-68
2022/06/12 05:22:45;;;;;;;13.50;12.70;;;22.90;91.60;;;;;;5074111;28;20483;-67
2022/06/12 05:25:13;;;;;;;12.93;12.43;;;22.90;90.70;;;;;;5074269;28;20474;-67
2022/06/12 05:27:41;;;;;;;13.17;12.47;;;22.80;90.40;;;;;;5074168;28;20475;-67
2022/06/12 05:30:08;;;;;;;12.70;12.20;;;22.80;90.30;;;;;;5073732;28;20465;-68
2022/06/12 05:32:35;;;;;;;12.43;11.90;;;22.80;90.30;;;;;;5074021;28;20467;-69
2022/06/12 05:35:02;;;;;;;13.67;13.03;;;22.80;90.70;;;;;;5074166;28;20486;-67
2022/06/12 05:37:29;;;;;;;11.93;11.53;;;22.80;90.30;;;;;;5074134;28;20466;-67
2022/06/12 05:39:57;;;;;;;13.23;12.37;;;22.90;90.30;;;;;;5073044;28;20552;-67
2022/06/12 05:42:24;;;;;;;13.93;13.37;;;22.90;90.00;;;;;;5073703;28;20520;-67
2022/06/12 05:44:51;;;;;;;12.70;12.30;;;22.90;90.10;;;;;;5073964;28;20446;-67
2022/06/12 05:47:19;;;;;;;12.80;12.30;;;22.90;89.80;;;;;;5073783;28;21062;-67
2022/06/12 05:49:46;;;;;;;13.13;12.63;;;22.90;90.10;;;;;;5073545;28;20471;-66
2022/06/12 05:52:12;;;;;;;12.60;11.93;;;22.90;90.20;;;;;;5073486;28;20548;-67
2022/06/12 05:54:39;;;;;;;12.97;12.57;;;22.90;89.80;;;;;;5073555;28;20478;-65
2022/06/12 05:57:08;;;;;;;12.77;11.97;;;22.90;90.20;;;;;;5073796;28;20526;-65
2022/06/12 05:59:35;;;;;;;13.50;12.90;;;22.90;90.00;;;;;;5073321;28;20534;-66
2022/06/12 06:02:02;;;;;;;14.13;13.63;;;22.90;89.10;;;;;;5073343;28;20447;-64
2022/06/12 06:04:29;;;;;;;11.67;11.17;;;22.90;88.90;;;;;;5073303;28;21068;-65
2022/06/12 06:06:58;;;;;;;11.90;11.50;;;22.90;89.80;;;;;;5073466;28;20814;-66
2022/06/12 06:09:27;;;;;;;13.33;12.70;;;23.00;90.20;;;;;;5073210;28;20463;-65
2022/06/12 06:11:54;;;;;;;11.97;11.57;;;23.00;89.90;;;;;;5073200;28;20471;-65
2022/06/12 06:14:23;;;;;;;13.30;12.83;;;23.00;89.80;;;;;;5073342;28;20471;-66
2022/06/12 06:16:49;;;;;;;11.90;11.30;;;23.10;90.70;;;;;;5073230;28;20950;-64
2022/06/12 06:19:17;;;;;;;12.33;11.83;;;23.10;90.40;;;;;;5073104;28;20533;-64
2022/06/12 06:21:45;;;;;;;12.20;11.73;;;23.20;90.50;;;;;;5072698;28;20539;-65
2022/06/12 06:24:13;;;;;;;13.40;12.87;;;23.10;90.00;;;;;;5073265;28;20470;-65
2022/06/12 06:26:40;;;;;;;12.43;12.03;;;23.10;86.90;;;;;;5073125;28;20475;-73
2022/06/12 06:29:08;;;;;;;12.80;12.30;;;23.00;86.90;;;;;;5072921;28;20487;-66
2022/06/12 06:31:36;;;;;;;14.23;13.50;;;23.10;87.80;;;;;;5072422;28;20497;-66
2022/06/12 06:34:04;;;;;;;12.77;12.03;;;23.10;88.60;;;;;;5073045;28;20765;-66
2022/06/12 06:36:31;;;;;;;14.80;14.20;;;23.00;88.60;;;;;;5072981;28;20471;-70
2022/06/12 06:39:00;;;;;;;12.97;12.57;;;23.10;89.30;;;;;;5073044;28;20462;-71
2022/06/12 06:41:28;;;;;;;13.70;13.20;;;23.10;89.60;;;;;;5072917;28;20817;-72
2022/06/12 06:46:41;;;;;;;14.70;13.80;;;23.00;91.60;;;;;;5072979;28;20798;-71
2022/06/12 06:49:07;;;;;;;16.67;15.07;;;23.00;94.30;;;;;;5072616;28;20489;-72
2022/06/12 06:51:36;;;;;;;16.33;15.43;;;23.10;96.50;;;;;;5071876;28;20450;-71
2022/06/12 06:54:04;;;;;;;15.60;14.30;;;23.00;98.30;;;;;;5072628;28;20995;-71
2022/06/12 06:56:31;;;;;;;15.97;14.87;;;23.10;98.90;;;;;;5072676;28;20469;-69
2022/06/12 06:58:58;;;;;;;14.20;13.30;;;23.10;97.70;;;;;;5072210;28;20520;-69
2022/06/12 07:01:25;;;;;;;14.80;14.00;;;23.10;97.10;;;;;;5072265;28;20544;-70
2022/06/12 07:03:53;;;;;;;13.90;13.23;;;23.10;96.10;;;;;;5072489;28;20482;-65
2022/06/12 07:06:21;;;;;;;15.73;14.80;;;23.10;95.60;;;;;;5072319;28;20447;-68
2022/06/12 07:08:47;;;;;;;13.75;13.07;;;23.10;94.90;;;;;;5068534;28;20968;-67
2022/06/12 07:11:14;;;;;;;17.03;16.17;;;23.10;93.60;;;;;;5070163;28;20225;-70
2022/06/12 07:13:41;;;;;;;14.93;14.27;;;23.00;92.90;;;;;;5071797;28;20530;-71
2022/06/12 07:16:08;;;;;;;16.00;15.30;;;23.10;92.70;;;;;;5072057;28;20750;-69
2022/06/12 07:18:35;;;;;;;14.53;13.73;;;23.10;92.60;;;;;;5071338;28;20546;-68
2022/06/12 07:21:04;;;;;;;14.93;14.23;;;23.10;92.10;;;;;;5071654;28;20443;-69
2022/06/12 07:23:32;;;;;;;13.90;13.40;;;23.00;90.70;;;;;;5071987;28;20528;-69
2022/06/12 07:26:04;;;;;;;13.10;12.50;;;22.90;90.10;;;;;;5072006;28;20813;-69
2022/06/12 07:28:32;;;;;;;14.30;13.70;;;22.90;90.10;;;;;;5070898;28;20522;-69
2022/06/12 07:30:59;;;;;;;13.40;12.80;;;22.90;90.00;;;;;;5070333;28;20454;-69
2022/06/12 07:33:26;;;;;;;14.50;13.90;;;22.90;88.60;;;;;;5071976;28;20483;-69
2022/06/12 07:35:53;;;;;;;15.43;14.83;;;22.90;86.40;;;;;;5071735;28;20451;-69
2022/06/12 07:38:25;;;;;;;15.07;14.47;;;22.90;87.20;;;;;;5071757;28;20482;-69
2022/06/12 07:40:54;;;;;;;15.40;14.77;;;22.90;86.20;;;;;;5071655;28;20482;-69
2022/06/12 07:43:23;;;;;;;15.40;14.57;;;22.90;86.10;;;;;;5071734;28;20443;-69
2022/06/12 07:45:51;;;;;;;14.77;14.00;;;22.80;84.10;;;;;;5071718;28;20443;-69
2022/06/12 07:48:18;;;;;;;14.20;13.50;;;22.80;84.40;;;;;;5071571;28;21027;-69
2022/06/12 07:50:47;;;;;;;14.37;13.93;;;22.80;82.20;;;;;;5071365;28;20446;-69
2022/06/12 07:53:15;;;;;;;15.20;14.63;;;22.80;82.30;;;;;;5071635;28;20450;-69
2022/06/12 07:55:44;;;;;;;14.70;14.10;;;22.80;80.00;;;;;;5071716;28;20493;-69
2022/06/12 07:58:11;;;;;;;14.00;13.50;;;22.80;80.40;;;;;;5071512;28;20447;-69
2022/06/12 08:00:39;;;;;;;14.87;14.17;;;22.80;79.30;;;;;;5071333;28;20859;-69
2022/06/12 08:03:07;;;;;;;14.90;14.30;;;22.70;78.40;;;;;;5071260;28;20833;-69
2022/06/12 08:05:35;;;;;;;15.20;14.50;;;22.70;77.70;;;;;;5071338;28;20884;-69
2022/06/12 08:08:02;;;;;;;14.87;14.27;;;22.70;77.80;;;;;;5071463;28;20519;-69
2022/06/12 08:10:29;;;;;;;14.00;13.60;;;22.70;78.00;;;;;;5071210;28;20498;-69
2022/06/12 08:12:57;;;;;;;14.70;14.20;;;22.70;78.30;;;;;;5071513;28;20504;-69
2022/06/12 08:15:28;;;;;;;15.57;15.07;;;22.70;77.60;;;;;;5071484;28;20439;-69
2022/06/12 08:17:56;;;;;;;14.20;13.60;;;22.70;77.70;;;;;;5071320;28;20451;-69
2022/06/12 08:20:25;;;;;;;13.53;13.03;;;22.70;79.10;;;;;;5071021;28;20565;-69
2022/06/12 08:22:53;;;;;;;13.40;13.00;;;22.80;78.60;;;;;;5071268;28;20486;-69
2022/06/12 08:25:20;;;;;;;14.13;13.73;;;22.80;76.20;;;;;;5071305;28;20479;-69
2022/06/12 08:27:48;;;;;;;13.60;13.20;;;22.70;73.70;;;;;;5071171;28;22368;-69
2022/06/12 08:30:17;;;;;;;14.30;13.73;;;22.70;72.70;;;;;;5070949;28;20491;-69
2022/06/12 08:32:47;;;;;;;15.40;14.80;;;22.70;73.50;;;;;;5071242;28;20442;-69
2022/06/12 08:35:19;;;;;;;13.83;13.43;;;22.70;73.10;;;;;;5071061;28;20449;-69
2022/06/12 08:37:46;;;;;;;14.13;13.70;;;22.70;73.30;;;;;;5071127;28;20439;-69
2022/06/12 08:40:18;;;;;;;17.27;16.57;;;22.70;72.80;;;;;;5070836;28;20556;-69
2022/06/12 08:42:53;;;;;;;15.40;14.33;;;22.70;72.50;;;;;;5071054;28;20471;-69
2022/06/12 08:45:24;;;;;;;13.83;13.37;;;22.70;71.60;;;;;;5071196;28;20470;-69
2022/06/12 08:47:56;;;;;;;15.43;14.73;;;22.70;70.30;;;;;;5070996;28;20494;-69
2022/06/12 08:50:30;;;;;;;14.20;13.80;;;22.70;71.00;;;;;;5070825;28;21037;-69
2022/06/12 08:53:06;;;;;;;14.40;13.80;;;22.70;70.00;;;;;;5071055;28;20447;-69
2022/06/12 08:55:38;;;;;;;14.60;13.80;;;22.70;69.40;;;;;;5071117;28;20856;-68
2022/06/12 08:58:12;;;;;;;14.63;14.03;;;22.70;69.00;;;;;;5070930;28;20602;-68
2022/06/12 09:00:40;;;;;;;12.80;12.30;;;22.70;68.30;;;;;;5070753;28;20933;-68
2022/06/12 09:03:14;;;;;;;14.17;13.40;;;22.70;69.00;;;;;;5070923;28;20504;-68
2022/06/12 09:05:51;;;;;;;14.23;13.63;;;22.70;69.30;;;;;;5070948;28;20443;-69
2022/06/12 09:08:26;;;;;;;13.40;12.93;;;22.70;69.00;;;;;;5070717;28;21058;-68
2022/06/12 09:11:01;;;;;;;12.67;12.27;;;22.70;69.10;;;;;;5070810;28;20474;-69
2022/06/12 09:13:32;;;;;;;13.83;13.20;;;22.70;68.70;;;;;;5070889;28;20613;-69
2022/06/12 09:16:06;;;;;;;12.90;12.50;;;22.70;69.80;;;;;;5074415;28;20442;-69
2022/06/12 09:21:05;;;;;;;12.70;12.20;;;22.70;70.30;;;;;;5123646;22;20481;-67
2022/06/12 09:23:40;;;;;;;12.37;11.97;;;22.70;70.60;;;;;;5074393;28;20200;-67
2022/06/12 09:26:17;;;;;;;13.73;13.03;;;22.70;70.50;;;;;;5074344;28;20534;-67
2022/06/12 09:28:50;;;;;;;12.50;12.13;;;22.70;70.40;;;;;;5074179;28;20478;-67
2022/06/12 09:31:24;;;;;;;13.13;12.50;;;22.70;70.40;;;;;;5074112;28;20447;-67
2022/06/12 09:34:01;;;;;;;13.53;13.03;;;22.70;70.10;;;;;;5074131;28;20481;-67
2022/06/12 09:36:56;;;;;;;13.30;12.90;;;22.70;70.30;;;;;;5074194;28;20467;-67
2022/06/12 09:39:42;;;;;;;14.13;13.63;;;22.70;70.20;;;;;;5073928;28;20966;-67
2022/06/12 09:42:18;;;;;;;12.87;12.37;;;22.70;70.50;;;;;;5074037;28;20483;-67
2022/06/12 09:44:52;;;;;;;12.27;11.87;;;22.70;70.80;;;;;;5074107;28;20478;-67
2022/06/12 09:47:32;;;;;;;13.27;12.80;;;22.70;72.00;;;;;;5073961;28;20522;-67
2022/06/12 09:50:05;;;;;;;13.47;12.87;;;22.80;71.60;;;;;;5073526;28;20565;-67
2022/06/12 09:53:01;;;;;;;14.00;12.90;;;22.80;71.50;;;;;;5081169;28;20466;-69
2022/06/12 09:55:34;;;;;;;12.05;11.55;;;22.80;73.10;;;;;;5085431;28;20440;-69
2022/06/12 09:58:10;;;;;;;14.03;13.53;;;22.80;71.80;;;;;;5093856;28;20208;-67
2022/06/12 10:00:41;;;;;;;14.50;13.90;;;22.90;71.70;;;;;;5076503;28;20502;-70
2022/06/12 10:03:16;;;;;;;14.50;14.00;;;22.90;71.30;;;;;;5093761;28;20447;-68
2022/06/12 10:05:47;;;;;;;14.47;13.77;;;22.90;71.00;;;;;;5094006;28;20449;-70
2022/06/12 10:08:18;;;;;;;13.07;12.70;;;22.90;70.30;;;;;;5093831;28;20795;-69
2022/06/12 10:10:49;;;;;;;14.73;14.13;;;23.00;70.90;;;;;;5092733;28;20466;-69
2022/06/12 10:13:21;;;;;;;14.03;13.53;;;23.00;71.60;;;;;;5093758;28;20801;-70
2022/06/12 10:15:51;;;;;;;14.03;13.63;;;23.00;71.70;;;;;;5093950;28;20473;-70
2022/06/12 10:18:27;;;;;;;14.60;14.00;;;23.00;71.40;;;;;;5093973;28;20481;-69
2022/06/12 10:21:01;;;;;;;14.73;14.23;;;23.00;70.90;;;;;;5073669;28;20479;-69
2022/06/12 10:23:28;;;;;;;14.80;14.40;;;23.10;70.50;;;;;;5086898;28;20448;-67
2022/06/12 10:25:57;;;;;;;14.57;13.97;;;23.10;72.40;;;;;;5093248;28;20538;-69
2022/06/12 10:28:29;;;;;;;13.23;12.80;;;23.10;70.80;;;;;;5093554;28;20525;-71
2022/06/12 10:31:18;;;;;;;14.40;13.90;;;23.10;71.50;;;;;;5093362;28;20490;-73
2022/06/12 10:33:51;;;;;;;14.00;13.17;;;23.10;70.70;;;;;;5093474;28;20520;-73
2022/06/12 10:36:24;;;;;;;14.33;13.83;;;23.10;70.60;;;;;;5093295;28;20458;-73
2022/06/12 10:38:51;;;;;;;13.80;13.30;;;23.10;70.70;;;;;;5093196;28;20984;-73
2022/06/12 10:41:24;;;;;;;14.37;13.83;;;23.10;70.10;;;;;;5093148;28;20450;-74
2022/06/12 10:43:53;;;;;;;15.30;14.80;;;23.10;70.80;;;;;;5093382;28;20531;-69
2022/06/12 10:46:24;;;;;;;14.07;13.47;;;23.10;70.40;;;;;;5093626;28;20478;-71
2022/06/12 10:49:01;;;;;;;15.13;14.43;;;23.20;69.80;;;;;;5092738;28;20497;-69
2022/06/12 10:51:35;;;;;;;13.53;13.00;;;23.20;68.70;;;;;;5092819;28;20450;-71
2022/06/12 10:54:12;;;;;;;13.70;13.20;;;23.20;68.90;;;;;;5093197;28;20536;-71
2022/06/12 10:56:46;;;;;;;14.17;13.77;;;23.20;70.30;;;;;;5090375;28;20446;-71
2022/06/12 10:59:36;;;;;;;15.73;15.17;;;23.30;69.70;;;;;;5093084;28;20523;-69
2022/06/12 11:02:37;;;;;;;14.97;14.27;;;23.30;69.70;;;;;;5092268;28;20443;-71
2022/06/12 11:05:29;;;;;;;14.37;13.80;;;23.30;67.20;;;;;;5087875;28;20500;-71
2022/06/12 11:08:08;;;;;;;14.90;14.10;;;23.30;67.80;;;;;;5074380;28;20522;-70
2022/06/12 11:10:41;;;;;;;13.83;13.30;;;23.30;67.70;;;;;;5093437;28;20508;-68
2022/06/12 11:13:25;;;;;;;14.70;13.90;;;23.30;65.70;;;;;;5093512;28;20887;-70
2022/06/12 11:16:15;;;;;;;15.70;15.03;;;23.30;65.60;;;;;;5092677;28;20472;-70
2022/06/12 11:19:07;;;;;;;14.97;14.37;;;23.30;64.90;;;;;;5081516;28;20442;-70
2022/06/12 11:21:45;;;;;;;15.13;14.50;;;23.40;66.10;;;;;;5092570;28;20481;-68
2022/06/12 11:24:19;;;;;;;14.50;13.90;;;23.40;66.00;;;;;;5072638;28;20478;-69
2022/06/12 11:27:01;;;;;;;15.30;14.70;;;23.40;66.40;;;;;;5072624;28;20480;-69
2022/06/12 11:30:04;;;;;;;15.27;14.77;;;23.40;66.70;;;;;;5078161;28;20536;-68
2022/06/12 11:32:57;;;;;;;14.70;14.20;;;23.40;66.00;;;;;;5091774;28;20882;-69
2022/06/12 11:35:43;;;;;;;14.93;14.43;;;23.50;66.40;;;;;;5082694;28;20438;-69
2022/06/12 11:38:35;;;;;;;15.03;14.43;;;23.50;66.40;;;;;;5102751;28;20446;-69
2022/06/12 11:41:13;;;;;;;13.80;13.40;;;23.50;67.00;;;;;;5108990;28;20438;-71
2022/06/12 11:43:43;;;;;;;16.17;15.67;;;23.50;66.80;;;;;;5104432;28;20434;-69
2022/06/12 11:46:33;;;;;;;14.50;14.00;;;23.50;67.30;;;;;;5104564;28;20442;-69
2022/06/12 11:49:16;;;;;;;15.73;14.97;;;23.60;67.70;;;;;;5101791;28;20509;-68
2022/06/12 11:52:01;;;;;;;15.60;15.00;;;23.60;67.40;;;;;;5097044;28;20479;-73
2022/06/12 11:55:05;;;;;;;15.47;14.87;;;23.60;66.60;;;;;;5096947;28;20471;-74
2022/06/12 11:57:39;;;;;;;15.63;15.03;;;23.60;66.30;;;;;;5095653;28;20454;-73
2022/06/12 12:00:09;;;;;;;14.23;13.83;;;23.60;66.40;;;;;;5092024;28;20897;-72
2022/06/12 12:02:53;;;;;;;14.33;13.73;;;23.60;66.50;;;;;;5092333;28;20450;-72
2022/06/12 12:05:46;;;;;;;14.80;14.03;;;23.70;67.30;;;;;;5094487;28;20940;-73
2022/06/12 12:08:44;;;;;;;15.17;14.53;;;23.70;66.10;;;;;;5091831;28;20525;-73
2022/06/12 12:11:17;;;;;;;16.30;15.60;;;23.70;64.50;;;;;;5084338;28;20544;-72
2022/06/12 12:13:48;;;;;;;14.60;14.10;;;23.70;63.70;;;;;;5092238;28;20529;-71
2022/06/12 12:16:24;;;;;;;14.23;13.43;;;23.80;64.40;;;;;;5091371;28;20533;-71
2022/06/12 12:18:57;;;;;;;12.77;12.40;;;23.80;66.80;;;;;;5092012;28;20879;-70
2022/06/12 12:21:29;;;;;;;14.60;14.10;;;23.90;66.40;;;;;;5092688;28;20521;-69
2022/06/12 12:23:58;;;;;;;14.97;14.10;;;23.90;66.40;;;;;;5093344;28;20533;-71
2022/06/12 12:26:31;;;;;;;14.50;14.03;;;23.90;65.80;;;;;;5093608;28;20967;-70
2022/06/12 12:29:01;;;;;;;13.57;13.10;;;23.90;66.30;;;;;;5091451;28;20466;-69
2022/06/12 12:31:29;;;;;;;13.50;13.00;;;23.90;64.60;;;;;;5089203;28;20450;-69
2022/06/12 12:33:58;;;;;;;12.97;12.47;;;23.90;64.20;;;;;;5090532;28;21012;-71
2022/06/12 12:42:23;;;;;;;13.87;13.30;;;24.00;65.00;;;;;;5091478;28;20464;-71
2022/06/12 12:44:50;;;;;;;13.43;13.00;;;24.00;64.70;;;;;;5091187;28;20487;-71
2022/06/12 12:47:19;;;;;;;12.60;12.20;;;24.00;64.80;;;;;;5091518;28;20496;-71
2022/06/12 12:49:47;;;;;;;13.40;12.80;;;24.00;64.40;;;;;;5093138;28;20486;-71
2022/06/12 12:52:17;;;;;;;14.47;13.97;;;24.00;64.80;;;;;;5095171;28;20868;-71
2022/06/12 12:54:49;;;;;;;14.53;13.90;;;24.00;65.20;;;;;;5095198;28;20525;-70
2022/06/12 12:57:17;;;;;;;14.57;13.97;;;24.00;65.10;;;;;;5095065;28;21029;-70
2022/06/12 12:59:48;;;;;;;13.33;12.93;;;24.00;65.60;;;;;;5094951;28;20553;-71
2022/06/12 13:02:28;;;;;;;12.83;12.47;;;24.00;65.80;;;;;;5094929;28;20954;-71
2022/06/12 13:04:58;;;;;;;13.70;13.20;;;24.10;66.30;;;;;;5095077;28;20521;-71
2022/06/12 13:07:50;;;;;;;13.07;12.67;;;24.10;66.40;;;;;;5095085;28;20984;-70
2022/06/12 13:10:46;;;;;;;13.27;12.87;;;24.10;66.20;;;;;;5094700;28;20489;-71
2022/06/12 13:13:39;;;;;;;13.13;12.73;;;24.10;66.30;;;;;;5094841;28;20856;-71